createdAt,value
2022-12-16T00:01:43.209Z,61.10
2022-12-16T00:04:12.342Z,60.90
2022-12-16T00:06:42.848Z,60.80
2022-12-16T00:09:11.696Z,61.00
2022-12-16T00:11:40.606Z,61.00
2022-12-16T00:14:09.576Z,61.20
2022-12-16T00:16:38.557Z,61.10
2022-12-16T00:19:07.605Z,61.20
2022-12-16T00:21:36.907Z,61.20
2022-12-16T00:24:07.246Z,61.40
2022-12-16T00:26:36.100Z,61.60
2022-12-16T00:29:06.294Z,61.60
2022-12-16T00:31:35.340Z,61.70
2022-12-16T00:34:04.392Z,61.70
2022-12-16T00:36:33.540Z,61.70
2022-12-16T00:39:02.698Z,61.60
2022-12-16T00:41:32.983Z,61.80
2022-12-16T00:44:02.234Z,61.80
2022-12-16T00:46:31.131Z,61.80
2022-12-16T00:49:00.478Z,61.80
2022-12-16T00:51:30.191Z,61.80
2022-12-16T00:53:59.312Z,61.80
2022-12-16T00:56:28.666Z,61.70
2022-12-16T00:58:58.946Z,61.70
2022-12-16T01:01:27.896Z,61.70
2022-12-16T01:03:57.978Z,61.50
2022-12-16T01:06:27.124Z,61.70
2022-12-16T01:08:56.094Z,61.70
2022-12-16T01:11:25.067Z,61.80
2022-12-16T01:13:55.145Z,61.90
2022-12-16T01:16:25.539Z,61.80
2022-12-16T01:18:56.281Z,62.10
2022-12-16T01:21:25.109Z,62.10
2022-12-16T01:23:55.053Z,62.10
2022-12-16T01:26:24.477Z,62.20
2022-12-16T01:28:53.379Z,62.30
2022-12-16T01:31:25.690Z,62.30
2022-12-16T01:33:54.854Z,62.50
2022-12-16T01:36:24.399Z,62.50
2022-12-16T01:38:53.370Z,63.40
2022-12-16T01:41:23.244Z,62.60
2022-12-16T01:43:52.395Z,62.50
2022-12-16T01:46:25.812Z,62.60
2022-12-16T01:48:58.933Z,62.70
2022-12-16T01:51:32.546Z,62.90
2022-12-16T01:54:06.807Z,62.80
2022-12-16T01:56:39.213Z,62.90
2022-12-16T01:59:08.853Z,63.00
2022-12-16T02:01:39.393Z,63.10
2022-12-16T02:04:08.566Z,63.20
2022-12-16T02:06:37.698Z,63.10
2022-12-16T02:09:11.089Z,63.10
2022-12-16T02:11:58.301Z,63.30
2022-12-16T02:14:55.449Z,63.30
2022-12-16T02:17:35.101Z,63.20
2022-12-16T02:20:47.159Z,63.10
2022-12-16T02:23:36.781Z,63.20
2022-12-16T02:26:41.259Z,63.20
2022-12-16T02:29:33.524Z,63.30
2022-12-16T02:32:12.315Z,63.30
2022-12-16T02:34:51.078Z,63.40
2022-12-16T02:37:32.331Z,63.40
2022-12-16T02:40:03.733Z,63.40
2022-12-16T02:42:37.140Z,63.40
2022-12-16T02:45:14.719Z,63.40
2022-12-16T02:47:45.410Z,63.40
2022-12-16T02:50:21.777Z,63.40
2022-12-16T02:52:52.154Z,63.40
2022-12-16T02:55:23.211Z,63.30
2022-12-16T02:58:08.462Z,63.40
2022-12-16T03:00:48.582Z,63.50
2022-12-16T03:03:24.432Z,63.40
2022-12-16T03:05:55.617Z,63.40
2022-12-16T03:08:29.015Z,63.50
2022-12-16T03:11:01.063Z,63.60
2022-12-16T03:13:34.344Z,63.60
2022-12-16T03:16:06.421Z,63.70
2022-12-16T03:18:39.235Z,63.70
2022-12-16T03:21:10.361Z,63.90
2022-12-16T03:23:44.329Z,64.00
2022-12-16T03:26:22.915Z,64.00
2022-12-16T03:28:57.216Z,64.20
2022-12-16T03:31:33.275Z,64.10
2022-12-16T03:34:10.676Z,64.30
2022-12-16T03:36:42.507Z,64.30
2022-12-16T03:39:12.991Z,64.30
2022-12-16T03:41:44.592Z,64.30
2022-12-16T03:44:14.089Z,64.40
2022-12-16T03:46:43.157Z,64.50
2022-12-16T03:49:13.517Z,64.40
2022-12-16T03:51:42.459Z,64.40
2022-12-16T03:54:11.517Z,64.40
2022-12-16T03:56:40.502Z,64.40
2022-12-16T03:59:09.553Z,64.50
2022-12-16T04:01:38.721Z,64.50
2022-12-16T04:04:08.127Z,64.60
2022-12-16T04:06:38.515Z,64.50
2022-12-16T04:09:07.458Z,64.50
2022-12-16T04:11:54.007Z,64.50
2022-12-16T04:14:41.309Z,64.70
2022-12-16T04:17:31.180Z,64.60
2022-12-16T04:20:17.415Z,64.70
2022-12-16T04:23:05.402Z,64.70
2022-12-16T04:25:36.875Z,64.70
2022-12-16T04:28:05.879Z,64.80
2022-12-16T04:30:35.588Z,64.70
2022-12-16T04:33:26.281Z,64.70
2022-12-16T04:36:12.828Z,64.80
2022-12-16T04:39:01.114Z,64.80
2022-12-16T04:41:47.875Z,64.80
2022-12-16T04:44:33.966Z,64.80
2022-12-16T04:47:20.488Z,64.80
2022-12-16T04:50:06.995Z,64.60
2022-12-16T04:52:53.595Z,64.90
2022-12-16T04:55:41.424Z,65.00
2022-12-16T04:58:28.026Z,65.80
2022-12-16T05:01:14.337Z,65.10
2022-12-16T05:04:01.635Z,65.10
2022-12-16T05:06:48.614Z,65.20
2022-12-16T05:09:34.810Z,65.10
2022-12-16T05:12:23.362Z,65.20
2022-12-16T05:15:09.669Z,66.00
2022-12-16T05:17:55.779Z,65.20
2022-12-16T05:20:42.501Z,65.20
2022-12-16T05:23:29.449Z,65.20
2022-12-16T05:26:16.189Z,65.30
2022-12-16T05:29:04.129Z,65.20
2022-12-16T05:31:50.777Z,65.20
2022-12-16T05:34:37.336Z,65.20
2022-12-16T05:37:24.629Z,65.10
2022-12-16T05:40:10.873Z,65.20
2022-12-16T05:42:57.251Z,65.20
2022-12-16T05:45:45.890Z,65.10
2022-12-16T05:48:32.323Z,65.20
2022-12-16T05:51:19.708Z,65.10
2022-12-16T05:54:06.995Z,65.20
2022-12-16T05:56:53.508Z,65.20
2022-12-16T05:59:40.012Z,65.20
2022-12-16T06:02:30.645Z,65.20
2022-12-16T06:05:31.662Z,65.10
2022-12-16T06:08:17.939Z,65.10
2022-12-16T06:11:04.649Z,65.00
2022-12-16T06:13:50.890Z,64.90
2022-12-16T06:16:37.526Z,64.90
2022-12-16T06:19:25.507Z,64.80
2022-12-16T06:22:12.010Z,64.80
2022-12-16T06:24:58.337Z,64.80
2022-12-16T06:27:44.770Z,64.80
2022-12-16T06:30:31.585Z,64.80
2022-12-16T06:33:33.159Z,64.80
2022-12-16T06:36:21.205Z,64.80
2022-12-16T06:39:07.797Z,64.90
2022-12-16T06:41:54.177Z,65.00
2022-12-16T06:44:40.790Z,65.00
2022-12-16T06:47:26.989Z,65.10
2022-12-16T06:50:13.474Z,65.20
2022-12-16T06:53:02.129Z,65.00
2022-12-16T06:55:48.968Z,65.20
2022-12-16T06:58:35.585Z,65.20
2022-12-16T07:01:22.885Z,65.20
2022-12-16T07:04:09.249Z,65.20
2022-12-16T07:06:55.641Z,65.00
2022-12-16T07:09:43.550Z,65.00
2022-12-16T07:12:38.456Z,64.90
2022-12-16T07:15:27.548Z,65.00
2022-12-16T07:18:14.656Z,65.00
2022-12-16T07:21:02.868Z,64.90
2022-12-16T07:23:54.684Z,64.90
2022-12-16T07:26:52.412Z,64.90
2022-12-16T07:29:39.502Z,65.00
2022-12-16T07:32:27.854Z,64.90
2022-12-16T07:35:14.793Z,64.90
2022-12-16T07:38:01.940Z,64.80
2022-12-16T07:40:48.704Z,64.90
2022-12-16T07:43:37.630Z,64.90
2022-12-16T07:46:24.854Z,64.90
2022-12-16T07:49:11.912Z,64.80
2022-12-16T07:51:59.069Z,64.60
2022-12-16T07:54:47.230Z,64.60
2022-12-16T07:57:34.484Z,65.30
2022-12-16T08:00:23.723Z,64.40
2022-12-16T08:03:12.831Z,64.30
2022-12-16T08:05:59.779Z,64.30
2022-12-16T08:08:46.657Z,64.20
2022-12-16T08:11:33.516Z,64.20
2022-12-16T08:14:20.477Z,64.10
2022-12-16T08:17:08.567Z,64.10
2022-12-16T08:19:55.354Z,64.00
2022-12-16T08:22:42.560Z,64.00
2022-12-16T08:25:29.638Z,64.00
2022-12-16T08:28:17.741Z,64.00
2022-12-16T08:31:08.271Z,63.90
2022-12-16T08:33:59.058Z,63.80
2022-12-16T08:36:46.369Z,63.70
2022-12-16T08:39:34.454Z,63.60
2022-12-16T08:42:22.580Z,63.70
2022-12-16T08:45:09.197Z,63.70
2022-12-16T08:47:56.516Z,63.60
2022-12-16T08:50:45.999Z,63.70
2022-12-16T08:53:29.974Z,63.60
2022-12-16T08:56:17.318Z,63.40
2022-12-16T08:59:05.239Z,63.40
2022-12-16T09:01:52.378Z,63.30
2022-12-16T09:04:42.323Z,63.30
2022-12-16T09:07:31.035Z,63.40
2022-12-16T09:10:17.970Z,63.20
2022-12-16T09:13:05.193Z,63.20
2022-12-16T09:15:51.832Z,63.10
2022-12-16T09:18:39.105Z,63.00
2022-12-16T09:21:31.750Z,63.00
2022-12-16T09:24:23.248Z,62.90
2022-12-16T09:27:11.874Z,62.80
2022-12-16T09:30:04.220Z,62.80
2022-12-16T09:32:51.801Z,62.60
2022-12-16T09:35:39.567Z,62.60
2022-12-16T09:38:27.117Z,62.70
2022-12-16T09:41:15.956Z,62.30
2022-12-16T09:44:15.215Z,62.00
2022-12-16T09:47:10.015Z,62.00
2022-12-16T09:50:05.784Z,61.70
2022-12-16T09:53:03.423Z,61.40
2022-12-16T09:55:53.479Z,61.40
2022-12-16T09:58:44.887Z,61.40
2022-12-16T10:01:33.449Z,61.30
2022-12-16T10:04:20.864Z,61.20
2022-12-16T10:07:11.645Z,61.10
2022-12-16T10:10:08.574Z,61.10
2022-12-16T10:13:02.770Z,61.10
2022-12-16T10:16:03.256Z,61.20
2022-12-16T10:19:08.610Z,61.30
2022-12-16T10:22:03.765Z,61.30
2022-12-16T10:25:06.501Z,61.40
2022-12-16T10:28:00.852Z,61.40
2022-12-16T10:30:48.677Z,61.50
2022-12-16T10:33:40.159Z,61.30
2022-12-16T10:36:33.316Z,61.20
2022-12-16T10:39:23.991Z,61.40
2022-12-16T10:42:12.543Z,61.40
2022-12-16T10:45:09.778Z,61.50
2022-12-16T10:47:57.217Z,61.30
2022-12-16T10:50:45.782Z,61.10
2022-12-16T10:53:35.030Z,60.80
2022-12-16T10:56:37.408Z,60.60
2022-12-16T10:59:22.468Z,60.60
2022-12-16T11:02:16.675Z,60.50
2022-12-16T11:05:05.099Z,60.40
2022-12-16T11:08:03.314Z,60.40
2022-12-16T11:10:53.085Z,60.30
2022-12-16T11:13:45.661Z,60.10
2022-12-16T11:16:44.921Z,60.00
2022-12-16T11:19:39.112Z,60.10
2022-12-16T11:22:33.406Z,60.10
2022-12-16T11:25:32.589Z,60.10
2022-12-16T11:28:23.518Z,60.10
2022-12-16T11:31:14.174Z,60.10
2022-12-16T11:34:03.135Z,60.10
2022-12-16T11:36:51.990Z,60.00
2022-12-16T11:39:41.712Z,59.80
2022-12-16T11:42:39.629Z,59.90
2022-12-16T11:45:33.384Z,59.90
2022-12-16T11:48:27.131Z,59.80
2022-12-16T11:51:17.758Z,59.80
2022-12-16T11:54:09.823Z,59.50
2022-12-16T11:57:02.365Z,59.50
2022-12-16T11:59:56.756Z,59.60
2022-12-16T12:02:49.236Z,59.70
2022-12-16T12:05:38.966Z,59.70
2022-12-16T12:08:33.232Z,59.60
2022-12-16T12:11:30.759Z,59.50
2022-12-16T12:14:29.753Z,59.40
2022-12-16T12:17:33.241Z,59.40
2022-12-16T12:20:36.833Z,59.50
2022-12-16T12:23:26.684Z,59.50
2022-12-16T12:26:22.244Z,59.30
2022-12-16T12:29:18.297Z,59.40
2022-12-16T12:32:11.035Z,59.30
2022-12-16T12:35:21.968Z,59.30
2022-12-16T12:38:21.039Z,59.20
2022-12-16T12:41:14.796Z,59.30
2022-12-16T12:44:10.971Z,59.30
2022-12-16T12:47:04.415Z,59.20
2022-12-16T12:49:59.548Z,59.10
2022-12-16T12:53:15.105Z,58.80
2022-12-16T12:56:07.352Z,58.70
2022-12-16T12:58:57.326Z,58.70
2022-12-16T13:01:50.532Z,58.70
2022-12-16T13:04:41.100Z,58.80
2022-12-16T13:07:28.644Z,58.80
2022-12-16T13:10:48.870Z,58.70
2022-12-16T13:13:51.740Z,58.80
2022-12-16T13:17:25.388Z,58.90
2022-12-16T13:20:14.872Z,58.80
2022-12-16T13:23:04.384Z,58.80
2022-12-16T13:26:00.206Z,58.60
2022-12-16T13:28:50.791Z,58.50
2022-12-16T13:31:38.330Z,58.60
2022-12-16T13:34:38.904Z,58.60
2022-12-16T13:37:35.950Z,58.60
2022-12-16T13:40:31.857Z,58.60
2022-12-16T13:43:23.664Z,58.60
2022-12-16T13:46:45.397Z,58.60
2022-12-16T13:50:02.279Z,58.70
2022-12-16T13:53:01.620Z,59.20
2022-12-16T13:55:51.603Z,59.00
2022-12-16T13:58:52.057Z,58.80
2022-12-16T14:01:46.799Z,58.70
2022-12-16T14:04:42.166Z,58.60
2022-12-16T14:07:29.168Z,58.50
2022-12-16T14:10:16.396Z,58.40
2022-12-16T14:13:12.100Z,58.40
2022-12-16T14:16:13.541Z,58.40
2022-12-16T14:19:18.534Z,58.40
2022-12-16T14:22:09.953Z,58.30
2022-12-16T14:24:58.344Z,58.20
2022-12-16T14:27:45.630Z,58.20
2022-12-16T14:30:37.638Z,58.30
2022-12-16T14:33:41.970Z,58.20
2022-12-16T14:36:41.144Z,58.20
2022-12-16T14:39:33.963Z,58.10
2022-12-16T14:42:21.631Z,58.10
2022-12-16T14:45:08.690Z,58.10
2022-12-16T14:47:59.312Z,58.10
2022-12-16T14:50:49.188Z,58.00
2022-12-16T14:53:39.314Z,57.90
2022-12-16T14:56:46.606Z,57.90
2022-12-16T14:59:34.936Z,58.00
2022-12-16T15:02:39.207Z,57.90
2022-12-16T15:05:27.370Z,58.10
2022-12-16T15:08:16.376Z,58.00
2022-12-16T15:11:03.750Z,58.00
2022-12-16T15:14:00.241Z,58.00
2022-12-16T15:16:57.015Z,57.90
2022-12-16T15:19:45.217Z,57.90
2022-12-16T15:22:34.201Z,58.00
2022-12-16T15:25:24.706Z,58.10
2022-12-16T15:28:30.425Z,58.10
2022-12-16T15:31:17.752Z,58.00
2022-12-16T15:34:01.903Z,58.00
2022-12-16T15:36:51.776Z,58.00
2022-12-16T15:39:41.235Z,58.00
2022-12-16T15:42:41.453Z,57.90
2022-12-16T15:45:37.581Z,57.90
2022-12-16T15:48:36.490Z,57.80
2022-12-16T15:51:24.285Z,57.70
2022-12-16T15:54:29.992Z,57.70
2022-12-16T15:57:17.014Z,57.70
2022-12-16T16:00:16.275Z,57.80
2022-12-16T16:03:06.913Z,58.00
2022-12-16T16:05:55.041Z,58.10
2022-12-16T16:08:42.429Z,58.10
2022-12-16T16:11:29.157Z,58.10
2022-12-16T16:14:15.956Z,58.10
2022-12-16T16:17:04.165Z,58.10
2022-12-16T16:19:51.207Z,58.20
2022-12-16T16:22:38.081Z,58.10
2022-12-16T16:25:26.577Z,58.20
2022-12-16T16:28:14.210Z,58.20
2022-12-16T16:31:01.356Z,58.30
2022-12-16T16:33:49.853Z,58.30
2022-12-16T16:36:37.068Z,58.40
2022-12-16T16:39:24.143Z,58.30
2022-12-16T16:42:11.141Z,58.20
2022-12-16T16:44:57.775Z,58.20
2022-12-16T16:47:56.325Z,58.40
2022-12-16T16:50:45.039Z,58.30
2022-12-16T16:53:37.270Z,58.30
2022-12-16T16:56:24.801Z,58.30
2022-12-16T16:59:12.054Z,58.30
2022-12-16T17:01:59.501Z,58.30
2022-12-16T17:04:46.054Z,58.40
2022-12-16T17:07:34.417Z,58.40
2022-12-16T17:10:22.927Z,58.40
2022-12-16T17:13:09.853Z,58.40
2022-12-16T17:15:57.604Z,58.40
2022-12-16T17:18:50.540Z,58.40
2022-12-16T17:21:39.341Z,58.50
2022-12-16T17:24:27.561Z,58.50
2022-12-16T17:27:14.461Z,58.60
2022-12-16T17:30:01.620Z,58.50
2022-12-16T17:32:49.278Z,58.50
2022-12-16T17:35:37.093Z,58.60
2022-12-16T17:38:24.668Z,58.70
2022-12-16T17:41:27.400Z,58.70
2022-12-16T17:44:14.755Z,58.70
2022-12-16T17:47:02.568Z,58.80
2022-12-16T17:49:49.677Z,58.90
2022-12-16T17:52:42.768Z,58.80
2022-12-16T17:55:31.123Z,58.80
2022-12-16T17:58:22.345Z,59.00
2022-12-16T18:01:09.388Z,58.90
2022-12-16T18:03:56.598Z,58.80
2022-12-16T18:06:44.316Z,58.80
2022-12-16T18:09:32.104Z,58.90
2022-12-16T18:12:17.788Z,58.80
2022-12-16T18:15:06.393Z,58.90
2022-12-16T18:17:53.234Z,58.90
2022-12-16T18:20:41.125Z,58.90
2022-12-16T18:23:28.677Z,59.50
2022-12-16T18:26:20.713Z,59.00
2022-12-16T18:29:04.503Z,59.10
2022-12-16T18:31:59.043Z,59.10
2022-12-16T18:34:47.416Z,59.30
2022-12-16T18:37:34.143Z,59.20
2022-12-16T18:40:22.053Z,59.30
2022-12-16T18:43:09.072Z,59.20
2022-12-16T18:45:56.276Z,59.30
2022-12-16T18:48:49.808Z,59.20
2022-12-16T18:51:36.801Z,59.20
2022-12-16T18:54:23.667Z,59.10
2022-12-16T18:57:11.480Z,59.00
2022-12-16T18:59:57.938Z,59.00
2022-12-16T19:02:45.230Z,59.00
2022-12-16T19:05:35.848Z,59.00
2022-12-16T19:08:23.138Z,59.20
2022-12-16T19:14:38.878Z,59.00
2022-12-16T19:17:25.275Z,58.90
2022-12-16T19:20:11.717Z,58.90
2022-12-16T19:22:58.555Z,59.00
2022-12-16T19:25:45.127Z,59.50
2022-12-16T19:28:37.796Z,59.00
2022-12-16T19:31:29.508Z,59.30
2022-12-16T19:34:17.599Z,59.20
2022-12-16T19:37:04.105Z,59.10
2022-12-16T19:39:51.896Z,59.10
2022-12-16T19:42:38.370Z,59.00
2022-12-16T19:45:26.469Z,59.00
2022-12-16T19:48:19.611Z,59.00
2022-12-16T19:51:06.461Z,59.00
2022-12-16T19:53:53.373Z,58.90
2022-12-16T19:56:43.913Z,59.00
2022-12-16T19:59:30.264Z,59.00
2022-12-16T20:02:15.990Z,59.10
2022-12-16T20:05:02.758Z,59.00
2022-12-16T20:07:48.437Z,59.00
2022-12-16T20:10:36.122Z,59.00
2022-12-16T20:16:35.081Z,59.00
2022-12-16T20:19:21.869Z,58.90
2022-12-16T20:22:11.843Z,58.80
2022-12-16T20:24:59.757Z,58.80
2022-12-16T20:27:46.160Z,59.10
2022-12-16T20:30:34.819Z,59.10
2022-12-16T20:33:22.605Z,59.00
2022-12-16T20:36:16.248Z,59.00
2022-12-16T20:39:02.908Z,58.90
2022-12-16T20:41:49.745Z,58.80
2022-12-16T20:44:36.311Z,58.80
2022-12-16T20:47:24.130Z,58.80
2022-12-16T20:50:10.600Z,58.80
2022-12-16T20:52:57.352Z,58.90
2022-12-16T20:55:43.822Z,59.00
2022-12-16T20:58:35.449Z,59.60
2022-12-16T21:01:22.503Z,59.10
2022-12-16T21:04:11.742Z,59.20
2022-12-16T21:06:58.809Z,59.20
2022-12-16T21:09:45.442Z,59.40
2022-12-16T21:12:31.958Z,59.40
2022-12-16T21:14:42.227Z,59.00
2022-12-16T21:15:18.967Z,59.30
2022-12-16T21:18:05.627Z,59.30
2022-12-16T21:24:06.362Z,59.40
2022-12-16T21:26:52.807Z,59.40
2022-12-16T21:29:42.654Z,59.30
2022-12-16T21:32:29.267Z,59.20
2022-12-16T21:35:16.421Z,59.20
2022-12-16T21:38:04.126Z,59.20
2022-12-16T21:40:50.504Z,59.20
2022-12-16T21:43:51.401Z,59.20
2022-12-16T21:46:38.055Z,59.30
2022-12-16T21:49:24.626Z,59.50
2022-12-16T21:52:13.497Z,59.90
2022-12-16T21:55:01.428Z,59.80
2022-12-16T21:57:47.941Z,59.70
2022-12-16T22:00:34.976Z,59.60
2022-12-16T22:03:21.708Z,59.60
2022-12-16T22:06:08.138Z,59.60
2022-12-16T22:08:56.332Z,59.70
2022-12-16T22:11:44.421Z,59.70
2022-12-16T22:14:30.687Z,59.60
2022-12-16T22:17:17.523Z,59.60
2022-12-16T22:20:04.053Z,59.60
2022-12-16T22:22:50.460Z,59.60
2022-12-16T22:25:37.263Z,59.60
2022-12-16T22:28:26.877Z,59.60
2022-12-16T22:31:16.116Z,59.60
2022-12-16T22:34:03.011Z,59.50
2022-12-16T22:36:49.378Z,59.50
2022-12-16T22:39:40.027Z,59.60
2022-12-16T22:42:29.347Z,59.60
2022-12-16T22:45:17.120Z,59.60
2022-12-16T22:48:06.494Z,59.50
2022-12-16T22:50:52.867Z,59.50
2022-12-16T22:53:43.496Z,59.50
2022-12-16T22:56:30.321Z,59.60
2022-12-16T22:59:16.743Z,59.50
2022-12-16T23:02:04.852Z,59.50
2022-12-16T23:04:51.446Z,59.50
2022-12-16T23:07:39.272Z,59.60
2022-12-16T23:10:27.575Z,59.60
2022-12-16T23:13:14.146Z,59.60
2022-12-16T23:16:01.126Z,59.50
2022-12-16T23:19:00.858Z,59.50
2022-12-16T23:21:47.644Z,59.50
2022-12-16T23:24:33.771Z,59.40
2022-12-16T23:27:28.532Z,59.40
2022-12-16T23:30:14.933Z,59.40
2022-12-16T23:33:01.444Z,59.40
2022-12-16T23:35:49.693Z,59.40
2022-12-16T23:38:35.872Z,59.30
2022-12-16T23:41:23.250Z,59.40
2022-12-16T23:44:09.954Z,59.40
2022-12-16T23:46:56.776Z,59.40
2022-12-16T23:49:43.144Z,59.40
2022-12-16T23:52:30.119Z,59.40
2022-12-16T23:55:19.101Z,59.50
2022-12-16T23:58:05.380Z,59.40
